Авиационная погода в Савонлинна

Регион: 
Погода METAR: 
EFSA 171320Z AUTO 06005KT 360V090 CAVOK 14/M05 Q1032
Время наблюдения
2021-04-17T13:20:00Z
Температура C
14.0
Точка росы
-5.0
Направление ветра
60
Скорость ветра (узлы)
5
Метео видимость
6.21
Явления погоды
Условия полета
VFR